createdAt,value
2023-04-22T00:00:01.600Z,38.42
2023-04-22T00:01:02.621Z,38.44
2023-04-22T00:02:01.831Z,38.35
2023-04-22T00:03:02.830Z,38.43
2023-04-22T00:04:03.071Z,38.32
2023-04-22T00:05:02.866Z,38.50
2023-04-22T00:06:01.951Z,38.43
2023-04-22T00:07:01.844Z,38.47
2023-04-22T00:08:01.894Z,38.50
2023-04-22T00:09:01.893Z,38.46
2023-04-22T00:10:02.026Z,38.50
2023-04-22T00:11:02.991Z,38.51
2023-04-22T00:12:03.023Z,38.47
2023-04-22T00:13:02.026Z,38.51
2023-04-22T00:14:03.054Z,38.49
2023-04-22T00:15:02.100Z,38.50
2023-04-22T00:16:02.247Z,38.47
2023-04-22T00:17:02.153Z,38.42
2023-04-22T00:18:03.201Z,38.42
2023-04-22T00:19:03.245Z,38.39
2023-04-22T00:20:03.256Z,38.51
2023-04-22T00:21:02.284Z,38.48
2023-04-22T00:22:02.342Z,38.52
2023-04-22T00:23:02.350Z,38.54
2023-04-22T00:24:03.389Z,38.53
2023-04-22T00:25:02.491Z,38.65
2023-04-22T00:26:02.449Z,38.49
2023-04-22T00:27:03.457Z,38.43
2023-04-22T00:28:02.583Z,38.53
2023-04-22T00:29:03.581Z,38.55
2023-04-22T00:30:03.540Z,38.56
2023-04-22T00:31:03.591Z,38.53
2023-04-22T00:32:02.593Z,38.61
2023-04-22T00:33:03.654Z,38.52
2023-04-22T00:34:03.670Z,38.60
2023-04-22T00:35:03.676Z,38.61
2023-04-22T00:36:03.704Z,38.57
2023-04-22T00:37:02.747Z,38.52
2023-04-22T00:38:03.789Z,38.57
2023-04-22T00:39:03.840Z,38.56
2023-04-22T00:40:03.829Z,38.67
2023-04-22T00:41:03.910Z,38.61
2023-04-22T00:42:03.949Z,38.55
2023-04-22T00:43:03.952Z,38.51
2023-04-22T00:44:02.989Z,38.55
2023-04-22T00:45:03.037Z,38.61
2023-04-22T00:46:03.023Z,38.61
2023-04-22T00:47:04.240Z,38.64
2023-04-22T00:48:03.173Z,38.58
2023-04-22T00:49:04.078Z,38.56
2023-04-22T00:50:03.102Z,38.62
2023-04-22T00:51:03.131Z,38.67
2023-04-22T00:52:03.128Z,38.70
2023-04-22T00:53:03.184Z,38.64
2023-04-22T00:54:03.190Z,38.62
2023-04-22T00:55:04.226Z,38.63
2023-04-22T00:56:03.278Z,38.58
2023-04-22T00:57:03.288Z,38.61
2023-04-22T00:58:03.371Z,38.61
2023-04-22T00:59:04.345Z,38.57
2023-04-22T01:00:03.376Z,38.60
2023-04-22T01:01:04.494Z,38.68
2023-04-22T01:02:03.546Z,38.70
2023-04-22T01:03:04.620Z,38.69
2023-04-22T01:04:03.604Z,38.77
2023-04-22T01:05:04.549Z,38.60
2023-04-22T01:06:04.555Z,38.66
2023-04-22T01:07:03.595Z,38.60
2023-04-22T01:08:04.718Z,38.63
2023-04-22T01:09:04.693Z,38.68
2023-04-22T01:10:04.757Z,38.59
2023-04-22T01:11:04.808Z,38.58
2023-04-22T01:12:03.811Z,38.64
2023-04-22T01:13:03.854Z,38.63
2023-04-22T01:14:03.960Z,38.73
2023-04-22T01:15:05.235Z,38.65
2023-04-22T01:16:05.057Z,38.67
2023-04-22T01:17:05.021Z,38.66
2023-04-22T01:18:05.153Z,38.60
2023-04-22T01:19:04.075Z,38.64
2023-04-22T01:20:05.104Z,38.67
2023-04-22T01:21:05.126Z,38.71
2023-04-22T01:22:05.204Z,38.66
2023-04-22T01:23:05.221Z,38.69
2023-04-22T01:24:04.236Z,38.68
2023-04-22T01:25:05.329Z,38.73
2023-04-22T01:26:04.324Z,38.71
2023-04-22T01:27:05.354Z,38.72
2023-04-22T01:28:04.355Z,38.74
2023-04-22T01:29:05.419Z,38.73
2023-04-22T01:30:05.449Z,38.65
2023-04-22T01:31:04.461Z,38.69
2023-04-22T01:32:05.547Z,38.70
2023-04-22T01:33:05.607Z,38.68
2023-04-22T01:34:04.572Z,38.69
2023-04-22T01:35:05.580Z,38.76
2023-04-22T01:36:05.606Z,38.66
2023-04-22T01:37:04.664Z,38.82
2023-04-22T01:38:05.679Z,38.74
2023-04-22T01:39:05.718Z,38.73
2023-04-22T01:40:05.759Z,38.77
2023-04-22T01:41:04.767Z,38.72
2023-04-22T01:42:05.777Z,38.76
2023-04-22T01:43:05.865Z,38.74
2023-04-22T01:44:04.904Z,38.69
2023-04-22T01:45:05.889Z,38.82
2023-04-22T01:46:05.985Z,38.78
2023-04-22T01:47:04.968Z,38.76
2023-04-22T01:48:06.032Z,38.78
2023-04-22T01:49:05.027Z,38.75
2023-04-22T01:50:05.150Z,38.83
2023-04-22T01:51:05.082Z,38.86
2023-04-22T01:52:05.120Z,38.87
2023-04-22T01:53:05.198Z,38.78
2023-04-22T01:54:05.203Z,38.70
2023-04-22T01:55:05.239Z,38.79
2023-04-22T01:56:06.361Z,38.72
2023-04-22T01:57:06.326Z,38.70
2023-04-22T01:58:05.364Z,38.79
2023-04-22T01:59:06.405Z,38.82
2023-04-22T02:00:06.439Z,38.79
2023-04-22T02:01:06.499Z,38.76
2023-04-22T02:02:05.554Z,38.83
2023-04-22T02:03:05.638Z,38.75
2023-04-22T02:04:06.637Z,38.82
2023-04-22T02:05:05.634Z,38.88
2023-04-22T02:06:06.676Z,38.84
2023-04-22T02:07:06.730Z,38.75
2023-04-22T02:08:05.784Z,38.77
2023-04-22T02:09:06.800Z,38.77
2023-04-22T02:10:06.866Z,38.78
2023-04-22T02:11:06.888Z,38.77
2023-04-22T02:12:06.924Z,38.81
2023-04-22T02:13:05.974Z,38.83
2023-04-22T02:14:06.004Z,38.82
2023-04-22T02:15:07.047Z,38.86
2023-04-22T02:16:06.199Z,38.76
2023-04-22T02:17:06.119Z,38.77
2023-04-22T02:18:07.203Z,38.81
2023-04-22T02:19:06.204Z,38.80
2023-04-22T02:20:07.331Z,38.79
2023-04-22T02:21:07.431Z,38.85
2023-04-22T02:22:06.359Z,38.82
2023-04-22T02:23:06.399Z,38.88
2023-04-22T02:24:06.429Z,38.85
2023-04-22T02:25:07.480Z,38.80
2023-04-22T02:26:07.506Z,38.82
2023-04-22T02:27:06.563Z,38.95
2023-04-22T02:28:06.588Z,38.86
2023-04-22T02:29:07.627Z,38.80
2023-04-22T02:30:06.681Z,38.85
2023-04-22T02:31:06.738Z,38.87
2023-04-22T02:32:06.771Z,38.85
2023-04-22T02:33:07.889Z,38.90
2023-04-22T02:34:07.888Z,38.80
2023-04-22T02:35:07.897Z,38.87
2023-04-22T02:36:06.971Z,38.89
2023-04-22T02:37:08.001Z,38.84
2023-04-22T02:38:07.047Z,38.89
2023-04-22T02:39:07.113Z,38.85
2023-04-22T02:40:07.140Z,38.83
2023-04-22T02:41:07.202Z,38.84
2023-04-22T02:42:08.244Z,38.85
2023-04-22T02:43:08.303Z,38.86
2023-04-22T02:44:08.370Z,38.87
2023-04-22T02:45:07.422Z,38.86
2023-04-22T02:46:07.546Z,38.90
2023-04-22T02:47:07.689Z,38.89
2023-04-22T02:48:07.890Z,38.89
2023-04-22T02:49:07.690Z,38.87
2023-04-22T02:50:07.702Z,38.85
2023-04-22T02:51:07.754Z,38.81
2023-04-22T02:52:07.773Z,38.94
2023-04-22T02:53:08.833Z,38.89
2023-04-22T02:54:08.903Z,38.93
2023-04-22T02:55:08.957Z,38.90
2023-04-22T02:56:08.956Z,38.98
2023-04-22T02:57:09.007Z,38.90
2023-04-22T02:58:09.047Z,38.91
2023-04-22T02:59:08.110Z,38.92
2023-04-22T03:00:09.144Z,38.99
2023-04-22T03:01:08.226Z,38.97
2023-04-22T03:02:08.507Z,38.96
2023-04-22T03:03:08.405Z,38.93
2023-04-22T03:04:08.581Z,38.92
2023-04-22T03:05:09.511Z,38.95
2023-04-22T03:06:09.475Z,38.90
2023-04-22T03:07:08.510Z,38.95
2023-04-22T03:08:09.567Z,38.89
2023-04-22T03:09:09.623Z,38.89
2023-04-22T03:10:09.667Z,38.91
2023-04-22T03:11:09.719Z,38.88
2023-04-22T03:12:09.756Z,38.89
2023-04-22T03:13:08.818Z,38.91
2023-04-22T03:14:08.925Z,38.93
2023-04-22T03:15:08.956Z,38.99
2023-04-22T03:16:10.044Z,38.99
2023-04-22T03:17:09.058Z,38.97
2023-04-22T03:18:10.103Z,38.93
2023-04-22T03:19:10.183Z,38.91
2023-04-22T03:20:09.245Z,39.01
2023-04-22T03:21:09.306Z,38.97
2023-04-22T03:22:09.361Z,38.98
2023-04-22T03:23:10.440Z,39.04
2023-04-22T03:24:10.495Z,38.97
2023-04-22T03:25:09.533Z,38.95
2023-04-22T03:26:09.583Z,38.90
2023-04-22T03:27:10.605Z,38.95
2023-04-22T03:28:09.648Z,38.96
2023-04-22T03:29:09.725Z,38.98
2023-04-22T03:30:10.775Z,38.98
2023-04-22T03:31:09.789Z,38.98
2023-04-22T03:32:10.901Z,38.93
2023-04-22T03:33:10.891Z,38.97
2023-04-22T03:34:09.899Z,39.03
2023-04-22T03:35:09.947Z,39.02
2023-04-22T03:36:11.080Z,39.02
2023-04-22T03:37:10.022Z,38.95
2023-04-22T03:38:11.099Z,39.02
2023-04-22T03:39:10.144Z,39.10
2023-04-22T03:40:10.209Z,39.00
2023-04-22T03:41:11.265Z,38.95
2023-04-22T03:42:11.310Z,38.98
2023-04-22T03:43:11.384Z,39.04
2023-04-22T03:44:10.420Z,39.02
2023-04-22T03:45:10.469Z,38.99
2023-04-22T03:46:10.507Z,39.05
2023-04-22T03:47:11.543Z,39.03
2023-04-22T03:48:10.563Z,38.99
2023-04-22T03:49:10.571Z,38.98
2023-04-22T03:50:11.616Z,39.04
2023-04-22T03:51:10.818Z,39.05
2023-04-22T03:52:11.696Z,38.99
2023-04-22T03:53:10.733Z,39.03
2023-04-22T03:54:11.763Z,39.08
2023-04-22T03:55:10.811Z,39.00
2023-04-22T03:56:11.845Z,38.99
2023-04-22T03:57:11.891Z,38.99
2023-04-22T03:58:10.908Z,39.00
2023-04-22T03:59:10.976Z,39.02
2023-04-22T04:00:11.012Z,39.05
2023-04-22T04:01:11.030Z,38.98
2023-04-22T04:02:11.200Z,39.09
2023-04-22T04:03:12.449Z,39.11
2023-04-22T04:04:12.504Z,39.05
2023-04-22T04:05:11.493Z,39.07
2023-04-22T04:06:12.342Z,39.08
2023-04-22T04:07:12.395Z,39.02
2023-04-22T04:08:11.473Z,39.07
2023-04-22T04:09:12.562Z,39.10
2023-04-22T04:10:11.582Z,39.04
2023-04-22T04:11:11.716Z,39.01
2023-04-22T04:12:11.676Z,39.01
2023-04-22T04:13:11.888Z,38.98
2023-04-22T04:14:11.751Z,39.06
2023-04-22T04:15:12.801Z,39.04
2023-04-22T04:16:12.824Z,39.02
2023-04-22T04:17:11.807Z,39.06
2023-04-22T04:18:11.803Z,39.01
2023-04-22T04:19:12.871Z,39.02
2023-04-22T04:20:12.924Z,39.03
2023-04-22T04:21:12.865Z,39.02
2023-04-22T04:22:11.875Z,39.01
2023-04-22T04:23:11.916Z,39.02
2023-04-22T04:24:12.930Z,39.12
2023-04-22T04:25:12.931Z,39.07
2023-04-22T04:26:13.090Z,39.01
2023-04-22T04:27:11.979Z,39.02
2023-04-22T04:28:12.970Z,39.01
2023-04-22T04:29:12.036Z,39.00
2023-04-22T04:30:12.951Z,39.03
2023-04-22T04:31:11.969Z,39.03
2023-04-22T04:32:12.955Z,39.06
2023-04-22T04:33:13.057Z,39.09
2023-04-22T04:34:11.940Z,39.02
2023-04-22T04:35:12.929Z,39.00
2023-04-22T04:36:12.927Z,39.05
2023-04-22T04:37:12.907Z,39.05
2023-04-22T04:38:12.908Z,39.02
2023-04-22T04:39:11.912Z,39.11
2023-04-22T04:40:12.992Z,39.08
2023-04-22T04:41:11.904Z,39.12
2023-04-22T04:42:11.898Z,39.06
2023-04-22T04:43:12.906Z,39.02
2023-04-22T04:44:12.916Z,39.08
2023-04-22T04:45:12.919Z,39.07
2023-04-22T04:46:13.156Z,39.14
2023-04-22T04:47:12.938Z,39.13
2023-04-22T04:48:12.028Z,39.14
2023-04-22T04:49:11.919Z,39.08
2023-04-22T04:50:12.967Z,39.10
2023-04-22T04:51:12.957Z,39.10
2023-04-22T04:52:12.972Z,39.07
2023-04-22T04:53:13.073Z,39.11
2023-04-22T04:54:12.017Z,39.06
2023-04-22T04:55:13.037Z,39.04
2023-04-22T04:56:12.100Z,39.05
2023-04-22T04:57:13.152Z,39.00
2023-04-22T04:58:12.100Z,39.10
2023-04-22T04:59:12.073Z,39.07
2023-04-22T05:00:12.121Z,39.08
2023-04-22T05:01:12.196Z,39.09
2023-04-22T05:02:12.262Z,39.09
2023-04-22T05:03:12.367Z,39.00
2023-04-22T05:04:12.367Z,39.01
2023-04-22T05:05:13.176Z,39.05
2023-04-22T05:06:13.215Z,39.04
2023-04-22T05:07:12.226Z,38.99
2023-04-22T05:08:13.244Z,39.08
2023-04-22T05:09:12.253Z,39.03
2023-04-22T05:10:13.317Z,39.01
2023-04-22T05:11:13.454Z,39.11
2023-04-22T05:12:12.406Z,38.99
2023-04-22T05:13:13.434Z,39.09
2023-04-22T05:14:12.745Z,39.04
2023-04-22T05:15:12.628Z,39.05
2023-04-22T05:16:12.631Z,39.05
2023-04-22T05:17:12.649Z,39.04
2023-04-22T05:18:13.706Z,39.03
2023-04-22T05:19:13.739Z,39.02
2023-04-22T05:20:12.909Z,39.02
2023-04-22T05:21:13.844Z,38.95
2023-04-22T05:22:13.859Z,39.06
2023-04-22T05:23:13.890Z,38.97
2023-04-22T05:24:12.907Z,39.03
2023-04-22T05:25:12.972Z,39.00
2023-04-22T05:26:14.051Z,38.99
2023-04-22T05:27:13.053Z,39.00
2023-04-22T05:28:13.010Z,39.10
2023-04-22T05:29:14.068Z,39.07
2023-04-22T05:30:14.079Z,39.05
2023-04-22T05:31:14.115Z,39.02
2023-04-22T05:32:14.172Z,38.96
2023-04-22T05:33:14.142Z,38.97
2023-04-22T05:34:13.190Z,39.00
2023-04-22T05:35:13.192Z,39.00
2023-04-22T05:36:14.212Z,39.03
2023-04-22T05:37:14.268Z,38.97
2023-04-22T05:38:14.260Z,38.99
2023-04-22T05:39:14.327Z,39.03
2023-04-22T05:40:13.354Z,38.95
2023-04-22T05:41:13.414Z,38.99
2023-04-22T05:42:14.353Z,39.01
2023-04-22T05:43:14.354Z,38.98
2023-04-22T05:44:14.407Z,38.93
2023-04-22T05:45:13.404Z,38.90
2023-04-22T05:46:14.459Z,38.96
2023-04-22T05:47:14.411Z,38.94
2023-04-22T05:48:13.443Z,38.95
2023-04-22T05:49:13.491Z,38.87
2023-04-22T05:50:14.530Z,38.93
2023-04-22T05:51:14.584Z,38.89
2023-04-22T05:52:14.628Z,38.92
2023-04-22T05:53:13.691Z,38.84
2023-04-22T05:54:13.745Z,38.88
2023-04-22T05:55:14.823Z,38.91
2023-04-22T05:56:13.851Z,38.84
2023-04-22T05:57:14.934Z,38.86
2023-04-22T05:58:14.951Z,38.84
2023-04-22T05:59:15.013Z,38.84
2023-04-22T06:00:15.130Z,38.80
2023-04-22T06:01:15.113Z,38.80
2023-04-22T06:02:14.251Z,38.79
2023-04-22T06:03:14.383Z,38.75
2023-04-22T06:04:15.497Z,38.73
2023-04-22T06:05:15.592Z,38.74
2023-04-22T06:06:15.368Z,38.76
2023-04-22T06:07:15.464Z,38.72
2023-04-22T06:08:14.513Z,38.71
2023-04-22T06:09:14.574Z,38.78
2023-04-22T06:10:15.650Z,38.77
2023-04-22T06:11:15.703Z,38.72
2023-04-22T06:12:15.736Z,38.69
2023-04-22T06:13:14.791Z,38.72
2023-04-22T06:14:15.851Z,38.69
2023-04-22T06:15:14.924Z,38.64
2023-04-22T06:16:16.020Z,38.64
2023-04-22T06:17:15.034Z,38.64
2023-04-22T06:18:15.088Z,38.66
2023-04-22T06:19:16.191Z,38.66
2023-04-22T06:20:15.253Z,38.63
2023-04-22T06:21:15.341Z,38.63
2023-04-22T06:22:16.376Z,38.57
2023-04-22T06:23:15.368Z,38.60
2023-04-22T06:24:15.442Z,38.63
2023-04-22T06:25:16.490Z,38.60
2023-04-22T06:26:15.554Z,38.55
2023-04-22T06:27:15.629Z,38.58
2023-04-22T06:28:15.632Z,38.53
2023-04-22T06:29:15.703Z,38.62
2023-04-22T06:30:16.732Z,38.58
2023-04-22T06:31:18.164Z,38.53
2023-04-22T06:32:15.791Z,38.52
2023-04-22T06:33:15.787Z,38.55
2023-04-22T06:34:15.783Z,38.50
2023-04-22T06:35:15.753Z,38.47
2023-04-22T06:36:15.748Z,38.47
2023-04-22T06:37:16.736Z,38.51
2023-04-22T06:38:16.748Z,38.49
2023-04-22T06:39:15.710Z,38.47
2023-04-22T06:40:15.756Z,38.45
2023-04-22T06:41:15.716Z,38.42
2023-04-22T06:42:16.709Z,38.43
2023-04-22T06:43:16.726Z,38.40
2023-04-22T06:44:15.706Z,38.42
2023-04-22T06:45:16.701Z,38.40
2023-04-22T06:46:16.713Z,38.41
2023-04-22T06:47:15.686Z,38.42
2023-04-22T06:48:16.707Z,38.40
2023-04-22T06:49:16.716Z,38.44
2023-04-22T06:50:16.686Z,38.39
2023-04-22T06:51:15.649Z,38.37
2023-04-22T06:52:16.643Z,38.37
2023-04-22T06:53:15.623Z,38.38
2023-04-22T06:54:15.630Z,38.32
2023-04-22T06:55:16.626Z,38.29
2023-04-22T06:56:16.612Z,38.36
2023-04-22T06:57:16.619Z,38.31
2023-04-22T06:58:15.604Z,38.32
2023-04-22T06:59:16.579Z,38.35
2023-04-22T07:00:16.629Z,38.40
2023-04-22T07:01:16.647Z,38.35
2023-04-22T07:02:16.753Z,38.44
2023-04-22T07:03:16.609Z,38.36
2023-04-22T07:04:16.628Z,38.34
2023-04-22T07:05:15.582Z,38.34
2023-04-22T07:06:15.534Z,38.32
2023-04-22T07:07:15.517Z,38.31
2023-04-22T07:08:15.564Z,38.30
2023-04-22T07:09:15.584Z,38.33
2023-04-22T07:10:15.629Z,38.29
2023-04-22T07:11:15.702Z,38.30
2023-04-22T07:12:16.672Z,38.27
2023-04-22T07:13:16.706Z,38.21
2023-04-22T07:14:16.737Z,38.20
2023-04-22T07:15:15.778Z,38.20
2023-04-22T07:16:16.816Z,38.20
2023-04-22T07:17:16.858Z,38.20
2023-04-22T07:18:16.879Z,38.22
2023-04-22T07:19:16.935Z,38.15
2023-04-22T07:20:16.985Z,38.19
2023-04-22T07:21:15.986Z,38.13
2023-04-22T07:22:16.030Z,38.11
2023-04-22T07:23:16.077Z,38.13
2023-04-22T07:24:16.085Z,38.13
2023-04-22T07:25:17.100Z,38.09
2023-04-22T07:26:17.131Z,38.07
2023-04-22T07:27:16.173Z,38.07
2023-04-22T07:28:17.197Z,38.01
2023-04-22T07:29:16.233Z,38.13
2023-04-22T07:30:17.260Z,38.05
2023-04-22T07:31:17.289Z,38.05
2023-04-22T07:32:16.296Z,38.05
2023-04-22T07:33:16.342Z,38.03
2023-04-22T07:34:16.369Z,38.09
2023-04-22T07:35:16.424Z,38.09
2023-04-22T07:36:17.453Z,38.06
2023-04-22T07:37:17.456Z,38.05
2023-04-22T07:38:16.471Z,38.01
2023-04-22T07:39:16.503Z,38.03
2023-04-22T07:40:16.527Z,37.99
2023-04-22T07:41:16.589Z,37.97
2023-04-22T07:42:17.576Z,37.96
2023-04-22T07:43:16.620Z,37.92
2023-04-22T07:44:17.620Z,37.98
2023-04-22T07:45:16.662Z,37.96
2023-04-22T07:46:17.740Z,37.98
2023-04-22T07:47:16.722Z,37.90
2023-04-22T07:48:17.728Z,37.92
2023-04-22T07:49:16.756Z,37.93
2023-04-22T07:50:17.748Z,37.87
2023-04-22T07:51:17.791Z,37.92
2023-04-22T07:52:17.815Z,37.94
2023-04-22T07:53:18.026Z,37.93
2023-04-22T07:54:16.878Z,37.94
2023-04-22T07:55:16.904Z,37.89
2023-04-22T07:56:17.899Z,37.89
2023-04-22T07:57:17.937Z,37.92
2023-04-22T07:58:16.914Z,37.88
2023-04-22T07:59:17.906Z,37.85
2023-04-22T08:00:17.909Z,37.88
2023-04-22T08:01:19.440Z,37.84
2023-04-22T08:02:18.008Z,37.87
2023-04-22T08:03:17.067Z,37.88
2023-04-22T08:04:18.067Z,37.81
2023-04-22T08:05:17.953Z,37.87
2023-04-22T08:06:17.917Z,37.82
2023-04-22T08:07:32.544Z,37.81
2023-04-22T08:08:17.918Z,37.82
2023-04-22T08:09:17.876Z,37.81
2023-04-22T08:10:16.945Z,37.86
2023-04-22T08:11:17.866Z,37.82
2023-04-22T08:12:16.851Z,37.81
2023-04-22T08:13:18.300Z,37.78
2023-04-22T08:14:16.869Z,37.82
2023-04-22T08:15:16.867Z,37.77
2023-04-22T08:16:17.940Z,37.74
2023-04-22T08:17:16.815Z,37.80
2023-04-22T08:18:17.810Z,37.75
2023-04-22T08:19:17.892Z,37.77
2023-04-22T08:20:16.793Z,37.75
2023-04-22T08:21:17.855Z,37.72
2023-04-22T08:22:17.823Z,37.80
2023-04-22T08:23:17.772Z,37.72
2023-04-22T08:24:17.788Z,37.67
2023-04-22T08:25:17.785Z,37.68
2023-04-22T08:26:17.772Z,37.67
2023-04-22T08:27:17.746Z,37.70
2023-04-22T08:28:16.756Z,37.64
2023-04-22T08:29:17.762Z,37.69
2023-04-22T08:30:17.751Z,37.67
2023-04-22T08:31:17.794Z,37.65
2023-04-22T08:32:16.727Z,37.61
2023-04-22T08:33:17.829Z,37.59
2023-04-22T08:34:17.708Z,37.64
2023-04-22T08:35:16.759Z,37.61
2023-04-22T08:36:16.679Z,37.61
2023-04-22T08:37:16.725Z,37.60
2023-04-22T08:38:16.687Z,37.60
2023-04-22T08:39:16.719Z,37.62
2023-04-22T08:40:16.737Z,37.55
2023-04-22T08:41:17.656Z,37.59
2023-04-22T08:42:16.967Z,37.56
2023-04-22T08:43:16.646Z,37.52
2023-04-22T08:44:16.639Z,37.49
2023-04-22T08:45:17.664Z,37.50
2023-04-22T08:46:17.727Z,37.54
2023-04-22T08:47:17.661Z,37.52
2023-04-22T08:48:17.606Z,37.54
2023-04-22T08:49:16.607Z,37.49
2023-04-22T08:50:16.647Z,37.45
2023-04-22T08:51:16.602Z,37.49
2023-04-22T08:52:16.596Z,37.46
2023-04-22T08:53:17.614Z,37.50
2023-04-22T08:54:16.573Z,37.48
2023-04-22T08:55:17.567Z,37.40
2023-04-22T08:56:17.576Z,37.40
2023-04-22T08:57:17.614Z,37.44
2023-04-22T08:58:16.542Z,37.42
2023-04-22T08:59:16.527Z,37.43
2023-04-22T09:00:16.566Z,37.44
2023-04-22T09:01:17.607Z,37.39
2023-04-22T09:02:17.549Z,37.38
2023-04-22T09:03:16.590Z,37.39
2023-04-22T09:04:17.582Z,37.42
2023-04-22T09:05:16.509Z,37.41
2023-04-22T09:06:16.477Z,37.37
2023-04-22T09:07:17.502Z,37.41
2023-04-22T09:08:17.497Z,37.38
2023-04-22T09:09:16.496Z,37.37
2023-04-22T09:10:16.504Z,37.36
2023-04-22T09:11:17.581Z,37.40
2023-04-22T09:12:17.582Z,37.34
2023-04-22T09:13:17.557Z,37.37
2023-04-22T09:14:16.534Z,37.34
2023-04-22T09:15:16.546Z,37.35
2023-04-22T09:16:16.561Z,37.27
2023-04-22T09:17:17.662Z,37.29
2023-04-22T09:18:16.579Z,37.28
2023-04-22T09:19:16.566Z,37.27
2023-04-22T09:20:17.584Z,37.28
2023-04-22T09:21:17.590Z,37.31
2023-04-22T09:22:16.578Z,37.30
2023-04-22T09:23:17.556Z,37.23
2023-04-22T09:24:17.585Z,37.26
2023-04-22T09:25:16.579Z,37.26
2023-04-22T09:26:16.569Z,37.29
2023-04-22T09:27:17.677Z,37.25
2023-04-22T09:28:16.643Z,37.23
2023-04-22T09:29:16.572Z,37.28
2023-04-22T09:30:17.625Z,37.27
2023-04-22T09:31:16.603Z,37.23
2023-04-22T09:32:17.624Z,37.24
2023-04-22T09:33:17.745Z,37.21
2023-04-22T09:34:17.622Z,37.23
2023-04-22T09:35:17.619Z,37.21
2023-04-22T09:36:16.625Z,37.24
2023-04-22T09:37:16.747Z,37.21
2023-04-22T09:38:17.684Z,37.15
2023-04-22T09:39:16.692Z,37.19
2023-04-22T09:40:17.793Z,37.23
2023-04-22T09:41:17.718Z,37.19
2023-04-22T09:42:17.691Z,37.17
2023-04-22T09:43:17.717Z,37.19
2023-04-22T09:44:16.707Z,37.16
2023-04-22T09:45:16.704Z,37.12
2023-04-22T09:46:17.709Z,37.12
2023-04-22T09:47:17.670Z,37.19
2023-04-22T09:48:16.648Z,37.14
2023-04-22T09:49:16.675Z,37.15
2023-04-22T09:50:17.720Z,37.11
2023-04-22T09:51:16.663Z,37.12
2023-04-22T09:52:16.657Z,37.10
2023-04-22T09:53:17.647Z,37.14
2023-04-22T09:54:17.646Z,37.12
2023-04-22T09:55:16.638Z,37.12
2023-04-22T09:56:16.629Z,37.11
2023-04-22T09:57:16.638Z,37.08
2023-04-22T09:58:17.638Z,37.11
2023-04-22T09:59:16.625Z,37.09
2023-04-22T10:00:16.669Z,37.11
2023-04-22T10:01:17.706Z,37.06
2023-04-22T10:02:17.656Z,37.14
2023-04-22T10:03:17.742Z,37.10
2023-04-22T10:04:17.658Z,37.06
2023-04-22T10:05:17.597Z,37.09
2023-04-22T10:06:17.586Z,37.12
2023-04-22T10:07:17.599Z,37.10
2023-04-22T10:08:17.591Z,37.09
2023-04-22T10:09:17.579Z,37.08
2023-04-22T10:10:17.741Z,37.08
2023-04-22T10:11:16.566Z,37.05
2023-04-22T10:12:18.626Z,37.08
2023-04-22T10:13:17.577Z,37.06
2023-04-22T10:14:16.558Z,37.08
2023-04-22T10:15:16.545Z,37.05
2023-04-22T10:16:17.619Z,37.06
2023-04-22T10:17:16.562Z,37.07
2023-04-22T10:18:17.536Z,37.05
2023-04-22T10:19:17.547Z,37.06
2023-04-22T10:20:17.566Z,37.03
2023-04-22T10:21:18.071Z,37.04
2023-04-22T10:22:17.521Z,36.99
2023-04-22T10:23:16.570Z,37.03
2023-04-22T10:24:16.483Z,36.96
2023-04-22T10:25:17.477Z,37.02
2023-04-22T10:26:16.807Z,37.02
2023-04-22T10:27:17.494Z,37.01
2023-04-22T10:28:17.496Z,37.00
2023-04-22T10:29:16.448Z,37.07
2023-04-22T10:30:16.473Z,36.99
2023-04-22T10:31:16.444Z,37.03
2023-04-22T10:32:16.451Z,37.01
2023-04-22T10:33:17.439Z,36.98
2023-04-22T10:34:17.427Z,36.97
2023-04-22T10:35:16.423Z,37.01
2023-04-22T10:36:17.388Z,37.02
2023-04-22T10:37:16.412Z,36.97
2023-04-22T10:38:16.424Z,36.98
2023-04-22T10:39:17.420Z,36.97
2023-04-22T10:40:16.453Z,36.96
2023-04-22T10:41:17.380Z,36.98
2023-04-22T10:42:16.349Z,36.95
2023-04-22T10:43:16.353Z,36.94
2023-04-22T10:44:17.366Z,37.01
2023-04-22T10:45:17.392Z,36.94
2023-04-22T10:46:17.514Z,36.92
2023-04-22T10:47:16.465Z,36.98
2023-04-22T10:48:16.515Z,36.94
2023-04-22T10:49:17.524Z,36.95
2023-04-22T10:50:17.557Z,36.97
2023-04-22T10:51:16.582Z,36.92
2023-04-22T10:52:16.642Z,36.93
2023-04-22T10:53:16.646Z,36.98
2023-04-22T10:54:16.697Z,36.98
2023-04-22T10:55:16.732Z,36.98
2023-04-22T10:56:17.758Z,36.96
2023-04-22T10:57:17.844Z,36.97
2023-04-22T10:58:17.845Z,36.92
2023-04-22T10:59:17.882Z,37.03
2023-04-22T11:00:17.202Z,36.97
2023-04-22T11:01:17.975Z,36.94
2023-04-22T11:02:17.061Z,36.98
2023-04-22T11:03:17.277Z,36.98
2023-04-22T11:04:18.127Z,36.97
2023-04-22T11:05:17.111Z,36.97
2023-04-22T11:06:18.133Z,36.95
2023-04-22T11:07:18.151Z,36.97
2023-04-22T11:08:17.235Z,36.95
2023-04-22T11:09:18.205Z,36.96
2023-04-22T11:10:18.233Z,36.92
2023-04-22T11:11:18.268Z,36.92
2023-04-22T11:12:17.313Z,36.94
2023-04-22T11:13:17.357Z,36.95
2023-04-22T11:14:17.372Z,36.87
2023-04-22T11:15:17.369Z,36.95
2023-04-22T11:16:20.439Z,36.90
2023-04-22T11:17:18.386Z,36.91
2023-04-22T11:18:18.491Z,36.94
2023-04-22T11:19:19.007Z,36.92
2023-04-22T11:20:18.439Z,36.95
2023-04-22T11:21:18.396Z,36.94
2023-04-22T11:22:18.365Z,36.95
2023-04-22T11:23:18.362Z,36.89
2023-04-22T11:24:18.581Z,36.91
2023-04-22T11:25:18.440Z,36.94
2023-04-22T11:26:18.337Z,36.98
2023-04-22T11:27:18.342Z,36.95
2023-04-22T11:28:17.523Z,36.92
2023-04-22T11:29:17.319Z,36.94
2023-04-22T11:30:18.316Z,36.99
2023-04-22T11:31:18.306Z,36.94
2023-04-22T11:32:18.280Z,36.97
2023-04-22T11:33:17.282Z,36.94
2023-04-22T11:34:18.325Z,36.92
2023-04-22T11:35:18.275Z,36.96
2023-04-22T11:36:18.299Z,36.94
2023-04-22T11:37:18.253Z,36.93
2023-04-22T11:38:18.248Z,36.95
2023-04-22T11:39:18.253Z,36.94
2023-04-22T11:40:29.045Z,36.97
2023-04-22T11:41:18.233Z,36.97
2023-04-22T11:42:18.224Z,36.94
2023-04-22T11:43:17.223Z,36.97
2023-04-22T11:44:17.242Z,36.99
2023-04-22T11:45:18.194Z,36.94
2023-04-22T11:46:17.281Z,36.97
2023-04-22T11:47:18.173Z,36.98
2023-04-22T11:48:18.160Z,36.99
2023-04-22T11:49:17.160Z,36.99
2023-04-22T11:50:18.185Z,36.94
2023-04-22T11:51:18.166Z,36.94
2023-04-22T11:52:17.165Z,37.01
2023-04-22T11:53:18.145Z,36.99
2023-04-22T11:54:18.136Z,36.97
2023-04-22T11:55:17.142Z,36.97
2023-04-22T11:56:18.170Z,36.98
2023-04-22T11:57:17.108Z,36.95
2023-04-22T11:58:18.103Z,36.95
2023-04-22T11:59:18.127Z,36.97
2023-04-22T12:00:17.090Z,36.93
2023-04-22T12:01:18.074Z,36.93
2023-04-22T12:02:18.112Z,36.97
2023-04-22T12:03:18.340Z,36.97
2023-04-22T12:04:18.150Z,36.98
2023-04-22T12:05:18.119Z,37.01
2023-04-22T12:06:17.052Z,37.01
2023-04-22T12:07:17.025Z,36.98
2023-04-22T12:08:18.137Z,36.90
2023-04-22T12:09:17.029Z,36.97
2023-04-22T12:10:17.021Z,37.04
2023-04-22T12:11:18.009Z,37.01
2023-04-22T12:12:18.007Z,37.02
2023-04-22T12:13:16.999Z,37.01
2023-04-22T12:14:17.987Z,37.02
2023-04-22T12:15:18.758Z,36.98
2023-04-22T12:16:16.967Z,37.03
2023-04-22T12:17:18.082Z,37.02
2023-04-22T12:18:16.964Z,37.02
2023-04-22T12:19:17.962Z,37.02
2023-04-22T12:20:17.926Z,37.02
2023-04-22T12:21:17.927Z,37.04
2023-04-22T12:22:17.950Z,37.02
2023-04-22T12:23:16.958Z,37.01
2023-04-22T12:24:16.962Z,37.05
2023-04-22T12:25:17.985Z,37.01
2023-04-22T12:26:18.026Z,37.01
2023-04-22T12:27:17.111Z,37.02
2023-04-22T12:28:17.109Z,37.01
2023-04-22T12:29:18.136Z,37.02
2023-04-22T12:30:17.153Z,37.02
2023-04-22T12:31:18.308Z,36.99
2023-04-22T12:32:18.205Z,37.03
2023-04-22T12:33:17.264Z,37.06
2023-04-22T12:34:18.272Z,37.00
2023-04-22T12:35:18.308Z,37.03
2023-04-22T12:36:18.348Z,36.97
2023-04-22T12:37:18.369Z,37.01
2023-04-22T12:38:17.394Z,37.07
2023-04-22T12:39:17.425Z,37.02
2023-04-22T12:40:18.478Z,37.06
2023-04-22T12:41:17.466Z,37.05
2023-04-22T12:42:17.506Z,37.05
2023-04-22T12:43:17.531Z,37.09
2023-04-22T12:44:18.585Z,37.06
2023-04-22T12:45:18.628Z,37.06
2023-04-22T12:46:17.675Z,37.06
2023-04-22T12:47:17.693Z,37.04
2023-04-22T12:48:18.720Z,37.09
2023-04-22T12:49:17.768Z,37.08
2023-04-22T12:50:18.792Z,37.05
2023-04-22T12:51:17.857Z,37.02
2023-04-22T12:52:17.856Z,37.03